createdAt,value
2023-02-03T00:02:11.811Z,7.62
2023-02-03T00:04:38.196Z,7.52
2023-02-03T00:07:04.521Z,7.46
2023-02-03T00:09:30.975Z,7.48
2023-02-03T00:11:57.388Z,7.57
2023-02-03T00:14:23.649Z,7.60
2023-02-03T00:16:50.094Z,7.56
2023-02-03T00:19:17.622Z,7.56
2023-02-03T00:21:44.322Z,7.61
2023-02-03T00:24:10.745Z,7.60
2023-02-03T00:26:40.628Z,7.57
2023-02-03T00:29:06.977Z,7.62
2023-02-03T00:31:33.410Z,7.69
2023-02-03T00:33:59.762Z,7.71
2023-02-03T00:36:26.643Z,7.73
2023-02-03T00:38:53.412Z,7.72
2023-02-03T00:41:20.930Z,7.75
2023-02-03T00:43:47.493Z,7.78
2023-02-03T00:46:14.228Z,7.76
2023-02-03T00:48:40.546Z,7.77
2023-02-03T00:51:07.159Z,7.74
2023-02-03T00:53:33.618Z,7.85
2023-02-03T00:55:59.995Z,7.84
2023-02-03T00:58:26.334Z,7.85
2023-02-03T01:00:54.093Z,7.89
2023-02-03T01:03:20.435Z,7.82
2023-02-03T01:05:46.737Z,7.84
2023-02-03T01:08:13.066Z,7.82
2023-02-03T01:10:39.426Z,7.79
2023-02-03T01:13:05.742Z,7.80
2023-02-03T01:15:32.086Z,7.71
2023-02-03T01:17:58.481Z,7.71
2023-02-03T01:20:25.127Z,7.76
2023-02-03T01:22:51.875Z,7.85
2023-02-03T01:25:18.237Z,7.84
2023-02-03T01:27:44.654Z,7.78
2023-02-03T01:30:11.288Z,7.66
2023-02-03T01:32:37.633Z,7.83
2023-02-03T01:35:04.015Z,7.82
2023-02-03T01:37:30.324Z,7.79
2023-02-03T01:39:57.532Z,7.78
2023-02-03T01:42:23.955Z,7.84
2023-02-03T01:44:52.403Z,7.86
2023-02-03T01:47:28.505Z,7.84
2023-02-03T01:49:54.821Z,7.85
2023-02-03T01:52:21.159Z,7.82
2023-02-03T01:54:48.959Z,7.82
2023-02-03T01:57:31.652Z,7.79
2023-02-03T02:00:00.173Z,7.73
2023-02-03T02:02:26.683Z,7.75
2023-02-03T02:05:28.707Z,7.83
2023-02-03T02:07:56.573Z,7.78
2023-02-03T02:10:22.990Z,7.76
2023-02-03T02:12:49.803Z,7.74
2023-02-03T02:15:16.311Z,7.70
2023-02-03T02:17:45.577Z,7.67
2023-02-03T02:20:24.204Z,7.70
2023-02-03T02:23:09.694Z,7.81
2023-02-03T02:25:41.703Z,7.80
2023-02-03T02:28:24.735Z,7.78
2023-02-03T02:30:57.169Z,7.73
2023-02-03T02:33:23.518Z,7.80
2023-02-03T02:35:58.732Z,7.79
2023-02-03T02:38:30.451Z,7.80
2023-02-03T02:41:08.315Z,7.80
2023-02-03T02:43:41.102Z,7.75
2023-02-03T02:46:12.990Z,7.74
2023-02-03T02:48:53.332Z,7.73
2023-02-03T02:51:21.421Z,7.75
2023-02-03T02:53:54.709Z,7.81
2023-02-03T02:56:21.413Z,7.85
2023-02-03T02:58:49.503Z,7.86
2023-02-03T03:01:17.251Z,7.85
2023-02-03T03:03:45.117Z,7.89
2023-02-03T03:06:26.171Z,7.88
2023-02-03T03:08:55.587Z,7.85
2023-02-03T03:11:22.994Z,7.83
2023-02-03T03:13:51.400Z,7.86
2023-02-03T03:16:20.240Z,7.92
2023-02-03T03:18:48.627Z,7.90
2023-02-03T03:21:18.801Z,7.87
2023-02-03T03:23:46.730Z,7.89
2023-02-03T03:26:28.776Z,7.86
2023-02-03T03:29:01.652Z,7.90
2023-02-03T03:31:28.113Z,7.80
2023-02-03T03:33:54.511Z,7.82
2023-02-03T03:36:30.290Z,7.79
2023-02-03T03:39:11.969Z,7.83
2023-02-03T03:41:44.997Z,7.83
2023-02-03T03:44:13.281Z,7.77
2023-02-03T03:46:49.402Z,7.77
2023-02-03T03:49:16.514Z,7.78
2023-02-03T03:51:46.287Z,7.79
2023-02-03T03:54:15.468Z,7.75
2023-02-03T03:56:45.424Z,7.74
2023-02-03T03:59:13.333Z,7.80
2023-02-03T04:01:40.715Z,7.77
2023-02-03T04:04:09.306Z,7.68
2023-02-03T04:06:37.221Z,7.78
2023-02-03T04:09:03.590Z,7.79
2023-02-03T04:11:48.600Z,7.82
2023-02-03T04:14:14.943Z,7.76
2023-02-03T04:16:41.288Z,7.86
2023-02-03T04:19:08.551Z,7.75
2023-02-03T04:21:34.993Z,7.87
2023-02-03T04:24:01.281Z,7.90
2023-02-03T04:26:27.598Z,7.85
2023-02-03T04:28:53.892Z,7.91
2023-02-03T04:31:20.555Z,7.98
2023-02-03T04:33:47.251Z,7.99
2023-02-03T04:36:13.534Z,8.01
2023-02-03T04:38:39.853Z,8.01
2023-02-03T04:41:06.154Z,8.03
2023-02-03T04:43:32.549Z,8.01
2023-02-03T04:46:01.658Z,8.08
2023-02-03T04:48:28.221Z,8.04
2023-02-03T04:50:54.538Z,8.14
2023-02-03T04:53:20.829Z,8.14
2023-02-03T04:55:47.953Z,8.03
2023-02-03T04:58:14.297Z,8.04
2023-02-03T05:00:40.839Z,8.05
2023-02-03T05:03:07.225Z,8.14
2023-02-03T05:05:33.591Z,8.06
2023-02-03T05:07:59.860Z,8.19
2023-02-03T05:10:26.499Z,8.19
2023-02-03T05:12:52.939Z,8.16
2023-02-03T05:15:19.217Z,8.14
2023-02-03T05:17:45.529Z,8.13
2023-02-03T05:20:11.972Z,8.18
2023-02-03T05:22:38.410Z,8.16
2023-02-03T05:25:05.092Z,8.12
2023-02-03T05:27:31.492Z,8.14
2023-02-03T05:29:58.016Z,8.09
2023-02-03T05:32:24.315Z,8.05
2023-02-03T05:34:50.602Z,8.10
2023-02-03T05:37:16.906Z,8.04
2023-02-03T05:39:43.177Z,8.13
2023-02-03T05:42:09.471Z,8.12
2023-02-03T05:44:35.799Z,8.16
2023-02-03T05:47:02.077Z,8.20
2023-02-03T05:49:28.386Z,8.20
2023-02-03T05:51:55.162Z,8.18
2023-02-03T05:54:21.605Z,8.19
2023-02-03T05:56:48.058Z,8.20
2023-02-03T05:59:14.523Z,8.19
2023-02-03T06:01:40.886Z,8.17
2023-02-03T06:04:07.372Z,8.06
2023-02-03T06:06:34.246Z,8.05
2023-02-03T06:09:04.768Z,8.13
2023-02-03T06:11:31.660Z,8.13
2023-02-03T06:14:00.910Z,8.12
2023-02-03T06:16:27.883Z,8.10
2023-02-03T06:18:55.498Z,8.12
2023-02-03T06:21:22.295Z,8.11
2023-02-03T06:23:51.461Z,8.06
2023-02-03T06:26:17.787Z,8.10
2023-02-03T06:28:44.122Z,8.13
2023-02-03T06:31:10.551Z,8.16
2023-02-03T06:33:36.917Z,8.20
2023-02-03T06:36:03.300Z,8.24
2023-02-03T06:38:29.604Z,8.20
2023-02-03T06:40:55.901Z,8.33
2023-02-03T06:43:22.413Z,8.31
2023-02-03T06:45:48.738Z,8.28
2023-02-03T06:48:15.276Z,8.27
2023-02-03T06:50:41.864Z,8.31
2023-02-03T06:53:08.198Z,8.33
2023-02-03T06:55:34.488Z,8.19
2023-02-03T06:58:00.828Z,8.29
2023-02-03T07:00:27.395Z,8.35
2023-02-03T07:02:58.150Z,8.29
2023-02-03T07:05:25.187Z,8.29
2023-02-03T07:07:52.022Z,8.33
2023-02-03T07:10:18.407Z,8.30
2023-02-03T07:12:44.757Z,8.30
2023-02-03T07:15:11.995Z,8.28
2023-02-03T07:17:39.136Z,8.34
2023-02-03T07:20:11.681Z,8.39
2023-02-03T07:22:39.392Z,8.36
2023-02-03T07:25:05.974Z,8.35
2023-02-03T07:27:32.293Z,8.33
2023-02-03T07:29:58.563Z,8.33
2023-02-03T07:32:24.856Z,8.40
2023-02-03T07:34:51.151Z,8.31
2023-02-03T07:37:17.443Z,8.23
2023-02-03T07:39:44.104Z,8.08
2023-02-03T07:42:11.122Z,7.95
2023-02-03T07:44:37.421Z,7.91
2023-02-03T07:47:03.707Z,7.86
2023-02-03T07:49:30.073Z,7.94
2023-02-03T07:51:56.566Z,7.90
2023-02-03T07:54:22.879Z,8.02
2023-02-03T07:56:49.182Z,8.01
2023-02-03T07:59:16.514Z,8.14
2023-02-03T08:01:42.844Z,8.14
2023-02-03T08:04:09.167Z,8.22
2023-02-03T08:06:35.596Z,8.28
2023-02-03T08:09:01.891Z,8.30
2023-02-03T08:11:28.194Z,8.31
2023-02-03T08:13:54.530Z,8.36
2023-02-03T08:16:20.934Z,8.44
2023-02-03T08:18:47.279Z,8.46
2023-02-03T08:21:13.589Z,8.54
2023-02-03T08:23:39.927Z,8.51
2023-02-03T08:26:06.209Z,8.53
2023-02-03T08:28:32.561Z,8.52
2023-02-03T08:30:58.962Z,8.55
2023-02-03T08:33:25.361Z,8.57
2023-02-03T08:35:51.744Z,8.56
2023-02-03T08:38:18.638Z,8.60
2023-02-03T08:40:44.994Z,8.62
2023-02-03T08:43:11.349Z,8.61
2023-02-03T08:45:38.966Z,8.62
2023-02-03T08:48:05.361Z,8.60
2023-02-03T08:50:31.905Z,8.62
2023-02-03T08:52:58.351Z,8.64
2023-02-03T08:55:24.737Z,8.67
2023-02-03T08:57:51.041Z,8.64
2023-02-03T09:00:17.547Z,8.65
2023-02-03T09:02:43.868Z,8.69
2023-02-03T09:05:10.308Z,8.73
2023-02-03T09:07:36.735Z,8.79
2023-02-03T09:10:03.173Z,8.79
2023-02-03T09:12:29.449Z,8.85
2023-02-03T09:14:55.772Z,8.87
2023-02-03T09:17:22.045Z,8.86
2023-02-03T09:19:48.412Z,8.93
2023-02-03T09:22:14.758Z,8.98
2023-02-03T09:24:41.330Z,9.01
2023-02-03T09:27:07.662Z,9.03
2023-02-03T09:29:34.020Z,9.05
2023-02-03T09:32:01.102Z,9.07
2023-02-03T09:34:27.413Z,9.03
2023-02-03T09:36:53.724Z,9.10
2023-02-03T09:39:20.062Z,9.16
2023-02-03T09:41:56.597Z,9.16
2023-02-03T09:44:27.522Z,9.15
2023-02-03T09:46:56.682Z,9.17
2023-02-03T09:49:28.610Z,9.19
2023-02-03T09:51:54.951Z,9.20
2023-02-03T09:54:23.969Z,9.18
2023-02-03T09:56:52.538Z,9.19
2023-02-03T09:59:19.503Z,9.18
2023-02-03T10:01:52.889Z,9.21
2023-02-03T10:04:28.494Z,9.26
2023-02-03T10:06:58.732Z,9.29
2023-02-03T10:09:27.871Z,9.30
2023-02-03T10:12:12.754Z,9.04
2023-02-03T10:14:58.561Z,9.36
2023-02-03T10:17:33.834Z,9.34
2023-02-03T10:20:21.889Z,9.35
2023-02-03T10:22:53.493Z,9.42
2023-02-03T10:25:25.002Z,9.43
2023-02-03T10:27:55.087Z,9.46
2023-02-03T10:30:21.629Z,9.51
2023-02-03T10:32:54.152Z,9.56
2023-02-03T10:35:21.526Z,9.59
2023-02-03T10:37:49.969Z,9.60
2023-02-03T10:40:16.930Z,9.59
2023-02-03T10:43:06.460Z,9.61
2023-02-03T10:45:36.282Z,9.64
2023-02-03T10:48:04.202Z,9.67
2023-02-03T10:50:33.586Z,9.65
2023-02-03T10:53:18.356Z,9.63
2023-02-03T10:55:46.608Z,9.55
2023-02-03T10:58:16.558Z,9.59
2023-02-03T11:00:43.282Z,9.53
2023-02-03T11:03:32.983Z,9.53
2023-02-03T11:06:11.641Z,9.46
2023-02-03T11:08:40.287Z,9.20
2023-02-03T11:11:13.259Z,9.03
2023-02-03T11:13:39.659Z,8.86
2023-02-03T11:16:10.753Z,8.75
2023-02-03T11:18:47.918Z,8.56
2023-02-03T11:21:19.764Z,8.50
2023-02-03T11:23:46.031Z,8.39
2023-02-03T11:26:14.295Z,8.38
2023-02-03T11:28:46.339Z,8.29
2023-02-03T11:31:24.355Z,8.26
2023-02-03T11:33:56.749Z,8.28
2023-02-03T11:36:26.213Z,8.21
2023-02-03T11:38:52.585Z,8.14
2023-02-03T11:41:20.205Z,8.19
2023-02-03T11:43:47.764Z,8.20
2023-02-03T11:46:15.185Z,8.21
2023-02-03T11:48:59.379Z,8.16
2023-02-03T11:51:40.187Z,8.14
2023-02-03T11:54:14.941Z,8.22
2023-02-03T11:56:43.925Z,8.23
2023-02-03T11:59:13.360Z,8.14
2023-02-03T12:02:01.884Z,8.16
2023-02-03T12:04:37.312Z,8.20
2023-02-03T12:07:22.270Z,8.20
2023-02-03T12:09:54.887Z,8.29
2023-02-03T12:12:21.143Z,8.26
2023-02-03T12:15:06.446Z,8.22
2023-02-03T12:17:35.774Z,8.33
2023-02-03T12:20:05.249Z,8.28
2023-02-03T12:22:45.033Z,8.29
2023-02-03T12:25:41.049Z,8.41
2023-02-03T12:28:27.434Z,8.51
2023-02-03T12:31:17.953Z,8.57
2023-02-03T12:33:49.258Z,8.57
2023-02-03T12:36:19.482Z,8.66
2023-02-03T12:38:51.682Z,8.69
2023-02-03T12:41:47.637Z,8.65
2023-02-03T12:45:06.284Z,8.70
2023-02-03T12:51:30.471Z,8.73
2023-02-03T12:54:01.051Z,8.75
2023-02-03T12:56:33.691Z,8.79
2023-02-03T12:59:10.328Z,8.75
2023-02-03T13:01:40.702Z,8.74
2023-02-03T13:04:07.007Z,8.71
2023-02-03T13:06:52.119Z,8.71
2023-02-03T13:09:18.400Z,8.71
2023-02-03T13:11:57.773Z,8.75
2023-02-03T13:14:28.519Z,8.74
2023-02-03T13:17:32.474Z,8.73
2023-02-03T13:23:07.411Z,8.68
2023-02-03T13:25:53.460Z,8.67
2023-02-03T13:28:27.580Z,8.65
2023-02-03T13:31:13.080Z,8.68
2023-02-03T13:33:47.616Z,8.70
2023-02-03T13:36:42.152Z,8.67
2023-02-03T13:39:08.405Z,8.62
2023-02-03T13:41:34.831Z,8.51
2023-02-03T13:44:01.758Z,8.55
2023-02-03T13:46:31.110Z,8.54
2023-02-03T13:49:01.911Z,8.59
2023-02-03T13:51:47.098Z,8.53
2023-02-03T13:54:16.568Z,8.49
2023-02-03T13:56:52.323Z,8.53
2023-02-03T13:59:19.245Z,8.50
2023-02-03T14:01:45.907Z,8.45
2023-02-03T14:07:43.015Z,8.48
2023-02-03T14:10:12.272Z,8.46
2023-02-03T14:12:40.216Z,8.45
2023-02-03T14:15:25.162Z,8.47
2023-02-03T14:17:51.526Z,8.49
2023-02-03T14:20:27.265Z,8.41
2023-02-03T14:23:13.985Z,8.46
2023-02-03T14:29:27.271Z,8.40
2023-02-03T14:31:58.836Z,8.41
2023-02-03T14:34:34.207Z,8.47
2023-02-03T14:40:47.263Z,8.49
2023-02-03T14:43:28.258Z,8.49
2023-02-03T14:46:13.476Z,8.38
2023-02-03T14:48:48.544Z,8.31
2023-02-03T14:51:31.133Z,8.39
2023-02-03T14:53:57.380Z,8.38
2023-02-03T14:56:23.958Z,8.39
2023-02-03T14:58:56.458Z,8.36
2023-02-03T15:01:35.006Z,8.42
2023-02-03T15:04:13.552Z,8.43
2023-02-03T15:06:44.099Z,8.37
2023-02-03T15:09:33.237Z,8.31
2023-02-03T15:11:59.620Z,8.24
2023-02-03T15:14:27.021Z,8.26
2023-02-03T15:16:54.977Z,8.25
2023-02-03T15:19:25.524Z,8.23
2023-02-03T15:21:52.158Z,8.16
2023-02-03T15:24:22.170Z,8.13
2023-02-03T15:26:50.081Z,8.09
2023-02-03T15:29:42.881Z,7.98
2023-02-03T15:32:12.750Z,8.06
2023-02-03T15:34:39.466Z,7.99
2023-02-03T15:37:08.674Z,8.05
2023-02-03T15:39:46.004Z,7.94
2023-02-03T15:42:24.965Z,7.99
2023-02-03T15:44:59.380Z,7.92
2023-02-03T15:47:39.597Z,7.86
2023-02-03T15:50:30.729Z,7.91
2023-02-03T15:52:59.409Z,7.88
2023-02-03T15:55:38.989Z,7.78
2023-02-03T15:58:05.565Z,7.70
2023-02-03T16:00:35.413Z,7.71
2023-02-03T16:03:03.774Z,7.72
2023-02-03T16:05:32.569Z,7.70
2023-02-03T16:08:17.895Z,7.61
2023-02-03T16:10:44.164Z,7.58
2023-02-03T16:13:21.034Z,7.51
2023-02-03T16:16:00.803Z,7.51
2023-02-03T16:18:27.239Z,7.49
2023-02-03T16:20:53.636Z,7.57
2023-02-03T16:23:24.139Z,7.51
2023-02-03T16:26:07.608Z,7.50
2023-02-03T16:28:52.950Z,7.42
2023-02-03T16:31:39.437Z,7.32
2023-02-03T16:34:32.203Z,7.21
2023-02-03T16:37:17.502Z,7.13
2023-02-03T17:55:37.543Z,7.13
2023-02-03T18:33:09.869Z,7.02
2023-02-03T18:35:45.797Z,6.99
2023-02-03T18:43:35.940Z,6.97
2023-02-03T18:46:16.263Z,7.02
2023-02-03T18:48:42.676Z,6.99
2023-02-03T18:51:09.770Z,6.98
2023-02-03T18:53:38.514Z,6.96
2023-02-03T18:56:28.499Z,6.95
2023-02-03T18:58:55.355Z,6.97
2023-02-03T19:01:23.196Z,6.93
2023-02-03T19:03:49.897Z,6.92
2023-02-03T19:06:16.514Z,6.88
2023-02-03T19:08:42.848Z,6.80
2023-02-03T19:11:09.199Z,6.86
2023-02-03T19:13:35.488Z,6.85
2023-02-03T19:16:02.484Z,6.90
2023-02-03T19:18:30.676Z,6.85
2023-02-03T19:20:57.043Z,6.87
2023-02-03T19:23:27.269Z,6.88
2023-02-03T19:29:10.608Z,6.70
2023-02-03T19:31:37.312Z,6.66
2023-02-03T19:34:03.784Z,6.68
2023-02-03T19:36:30.463Z,6.82
2023-02-03T19:38:56.810Z,6.78
2023-02-03T19:42:54.016Z,6.57
2023-02-03T19:45:20.715Z,6.45
2023-02-03T19:47:47.200Z,6.48
2023-02-03T19:50:13.697Z,6.51
2023-02-03T19:52:40.179Z,6.35
2023-02-03T19:55:07.528Z,5.98
2023-02-03T19:57:39.851Z,5.54
2023-02-03T20:00:07.176Z,5.76
2023-02-03T20:02:33.731Z,6.32
2023-02-03T20:05:00.215Z,5.81
2023-02-03T20:07:28.582Z,5.37
2023-02-03T20:09:55.111Z,6.03
2023-02-03T20:12:21.563Z,6.32
2023-02-03T20:14:47.946Z,6.21
2023-02-03T20:17:14.454Z,6.13
2023-02-03T20:19:40.848Z,6.23
2023-02-03T20:22:07.216Z,6.06
2023-02-03T20:24:33.768Z,6.27
2023-02-03T20:27:00.349Z,6.31
2023-02-03T20:29:35.625Z,5.72
2023-02-03T20:32:04.525Z,6.18
2023-02-03T20:34:30.967Z,6.17
2023-02-03T20:36:58.881Z,6.12
2023-02-03T20:39:25.748Z,6.19
2023-02-03T20:41:52.500Z,6.21
2023-02-03T20:44:19.057Z,6.21
2023-02-03T20:46:45.766Z,6.05
2023-02-03T20:49:13.767Z,6.16
2023-02-03T20:51:40.613Z,6.01
2023-02-03T20:54:21.995Z,6.09
2023-02-03T20:56:48.828Z,5.88
2023-02-03T20:59:19.791Z,5.97
2023-02-03T21:01:47.073Z,6.02
2023-02-03T21:04:48.355Z,5.96
2023-02-03T21:07:21.448Z,5.81
2023-02-03T21:09:47.830Z,5.97
2023-02-03T21:12:14.971Z,5.81
2023-02-03T21:14:49.709Z,5.86
2023-02-03T21:17:20.741Z,6.01
2023-02-03T21:19:47.740Z,5.96
2023-02-03T21:22:18.031Z,6.02
2023-02-03T21:25:01.569Z,5.89
2023-02-03T21:27:35.002Z,5.84
2023-02-03T21:30:22.321Z,5.80
2023-02-03T21:32:48.683Z,5.78
2023-02-03T21:35:35.030Z,5.65
2023-02-03T21:38:02.522Z,5.62
2023-02-03T21:40:34.557Z,5.64
2023-02-03T21:43:03.322Z,5.58
2023-02-03T21:45:42.446Z,5.58
2023-02-03T21:48:27.187Z,5.57
2023-02-03T21:50:55.494Z,5.58
2023-02-03T21:53:49.220Z,5.51
2023-02-03T21:56:17.771Z,5.56
2023-02-03T21:58:47.249Z,5.47
2023-02-03T22:01:16.715Z,5.40
2023-02-03T22:03:47.549Z,5.32
2023-02-03T22:06:25.288Z,5.32
2023-02-03T22:08:54.560Z,5.26
2023-02-03T22:11:22.570Z,5.28
2023-02-03T22:13:49.585Z,5.51
2023-02-03T22:16:20.066Z,5.43
2023-02-03T22:18:48.033Z,5.27
2023-02-03T22:21:15.045Z,5.29
2023-02-03T22:23:42.253Z,5.43
2023-02-03T22:26:09.963Z,5.43
2023-02-03T22:28:36.721Z,5.34
2023-02-03T22:31:05.058Z,5.38
2023-02-03T22:33:32.012Z,5.44
2023-02-03T22:35:58.530Z,5.37
2023-02-03T22:38:25.298Z,5.45
2023-02-03T22:40:52.514Z,5.50
2023-02-03T22:43:19.121Z,5.58
2023-02-03T22:45:45.582Z,5.56
2023-02-03T22:48:12.160Z,5.62
2023-02-03T22:50:38.865Z,5.44
2023-02-03T22:53:05.965Z,5.65
2023-02-03T22:55:32.495Z,5.57
2023-02-03T22:57:59.213Z,5.64
2023-02-03T23:00:26.722Z,5.60
2023-02-03T23:02:53.613Z,5.67
2023-02-03T23:05:20.491Z,5.60
2023-02-03T23:07:47.502Z,5.62
2023-02-03T23:10:19.896Z,5.68
2023-02-03T23:12:46.697Z,5.52
2023-02-03T23:15:13.943Z,5.64
2023-02-03T23:17:40.748Z,5.61
2023-02-03T23:20:09.221Z,5.58
2023-02-03T23:22:35.791Z,5.54
2023-02-03T23:25:02.652Z,5.52
2023-02-03T23:27:29.066Z,5.36
2023-02-03T23:29:55.473Z,5.26
2023-02-03T23:32:22.110Z,5.24
2023-02-03T23:35:06.867Z,5.23
2023-02-03T23:37:33.353Z,5.15
2023-02-03T23:40:00.381Z,5.19
2023-02-03T23:42:26.936Z,5.04
2023-02-03T23:44:53.355Z,4.93
2023-02-03T23:47:19.756Z,5.03
2023-02-03T23:49:46.226Z,4.92
2023-02-03T23:52:12.687Z,4.97
2023-02-03T23:54:39.123Z,4.98
2023-02-03T23:57:05.600Z,4.95
2023-02-03T23:59:32.151Z,4.94
